sensor_id;sensor_type;location;lat;lon;timestamp;temperature;humidity
11538;DHT22;50159;49.426;11.182;2023-04-24T00:01:01;10.50;99.90
11538;DHT22;50159;49.426;11.182;2023-04-24T00:03:28;10.60;99.90
11538;DHT22;50159;49.426;11.182;2023-04-24T00:05:56;10.60;99.90
11538;DHT22;50159;49.426;11.182;2023-04-24T00:08:25;10.50;99.90
11538;DHT22;50159;49.426;11.182;2023-04-24T00:10:52;10.50;99.90
11538;DHT22;50159;49.426;11.182;2023-04-24T00:13:19;10.50;99.90
11538;DHT22;50159;49.426;11.182;2023-04-24T00:15:45;10.50;99.90
11538;DHT22;50159;49.426;11.182;2023-04-24T00:18:12;10.50;99.90
11538;DHT22;50159;49.426;11.182;2023-04-24T00:20:41;10.50;99.90
11538;DHT22;50159;49.426;11.182;2023-04-24T00:23:10;10.50;99.90
11538;DHT22;50159;49.426;11.182;2023-04-24T00:25:36;10.50;99.90
11538;DHT22;50159;49.426;11.182;2023-04-24T00:28:03;10.40;99.90
11538;DHT22;50159;49.426;11.182;2023-04-24T00:30:30;10.40;99.90
11538;DHT22;50159;49.426;11.182;2023-04-24T00:32:57;10.40;99.90
11538;DHT22;50159;49.426;11.182;2023-04-24T00:35:24;10.40;99.90
11538;DHT22;50159;49.426;11.182;2023-04-24T00:37:51;10.40;99.90
11538;DHT22;50159;49.426;11.182;2023-04-24T00:40:18;10.40;99.90
11538;DHT22;50159;49.426;11.182;2023-04-24T00:42:44;10.40;99.90
11538;DHT22;50159;49.426;11.182;2023-04-24T00:45:12;10.40;99.90
11538;DHT22;50159;49.426;11.182;2023-04-24T00:47:39;10.40;99.90
11538;DHT22;50159;49.426;11.182;2023-04-24T00:50:08;10.30;99.90
11538;DHT22;50159;49.426;11.182;2023-04-24T00:52:35;10.40;99.90
11538;DHT22;50159;49.426;11.182;2023-04-24T00:55:02;10.40;99.90
11538;DHT22;50159;49.426;11.182;2023-04-24T00:57:30;10.40;99.90
11538;DHT22;50159;49.426;11.182;2023-04-24T00:59:57;10.40;99.90
11538;DHT22;50159;49.426;11.182;2023-04-24T01:02:24;10.30;99.90
11538;DHT22;50159;49.426;11.182;2023-04-24T01:04:52;10.30;99.90
11538;DHT22;50159;49.426;11.182;2023-04-24T01:07:20;10.30;99.90
11538;DHT22;50159;49.426;11.182;2023-04-24T01:09:48;10.30;99.90
11538;DHT22;50159;49.426;11.182;2023-04-24T01:12:17;10.30;99.90
11538;DHT22;50159;49.426;11.182;2023-04-24T01:14:44;10.30;99.90
11538;DHT22;50159;49.426;11.182;2023-04-24T01:17:11;10.20;99.90
11538;DHT22;50159;49.426;11.182;2023-04-24T01:19:38;10.20;99.90
11538;DHT22;50159;49.426;11.182;2023-04-24T01:22:15;10.20;99.90
11538;DHT22;50159;49.426;11.182;2023-04-24T01:24:43;10.20;99.90
11538;DHT22;50159;49.426;11.182;2023-04-24T01:27:10;10.10;99.90
11538;DHT22;50159;49.426;11.182;2023-04-24T01:29:37;10.10;99.90
11538;DHT22;50159;49.426;11.182;2023-04-24T01:32:04;10.10;99.90
11538;DHT22;50159;49.426;11.182;2023-04-24T01:34:31;10.10;99.90
11538;DHT22;50159;49.426;11.182;2023-04-24T01:36:58;10.00;99.90
11538;DHT22;50159;49.426;11.182;2023-04-24T01:39:25;10.10;99.90
11538;DHT22;50159;49.426;11.182;2023-04-24T01:41:55;10.10;99.90
11538;DHT22;50159;49.426;11.182;2023-04-24T01:44:22;10.10;99.90
11538;DHT22;50159;49.426;11.182;2023-04-24T01:46:49;10.10;99.90
11538;DHT22;50159;49.426;11.182;2023-04-24T01:49:16;10.00;99.90
11538;DHT22;50159;49.426;11.182;2023-04-24T01:51:42;10.00;99.90
11538;DHT22;50159;49.426;11.182;2023-04-24T01:54:09;10.00;99.90
11538;DHT22;50159;49.426;11.182;2023-04-24T01:56:36;10.00;99.90
11538;DHT22;50159;49.426;11.182;2023-04-24T01:59:07;10.00;99.90
11538;DHT22;50159;49.426;11.182;2023-04-24T02:01:36;10.00;99.90
11538;DHT22;50159;49.426;11.182;2023-04-24T02:04:04;10.00;99.90
11538;DHT22;50159;49.426;11.182;2023-04-24T02:06:31;10.10;99.90
11538;DHT22;50159;49.426;11.182;2023-04-24T02:08:58;10.10;99.90
11538;DHT22;50159;49.426;11.182;2023-04-24T02:11:26;10.10;99.90
11538;DHT22;50159;49.426;11.182;2023-04-24T02:13:53;10.10;99.90
11538;DHT22;50159;49.426;11.182;2023-04-24T02:16:20;10.10;99.90
11538;DHT22;50159;49.426;11.182;2023-04-24T02:18:46;10.10;99.90
11538;DHT22;50159;49.426;11.182;2023-04-24T02:21:13;10.10;99.90
11538;DHT22;50159;49.426;11.182;2023-04-24T02:23:40;10.10;99.90
11538;DHT22;50159;49.426;11.182;2023-04-24T02:26:06;10.10;99.90
11538;DHT22;50159;49.426;11.182;2023-04-24T02:28:33;10.00;99.90
11538;DHT22;50159;49.426;11.182;2023-04-24T02:31:00;10.00;99.90
11538;DHT22;50159;49.426;11.182;2023-04-24T02:33:26;10.00;99.90
11538;DHT22;50159;49.426;11.182;2023-04-24T02:35:53;9.90;99.90
11538;DHT22;50159;49.426;11.182;2023-04-24T02:38:20;9.90;99.90
11538;DHT22;50159;49.426;11.182;2023-04-24T02:40:46;9.90;99.90
11538;DHT22;50159;49.426;11.182;2023-04-24T02:43:13;9.80;99.90
11538;DHT22;50159;49.426;11.182;2023-04-24T02:45:40;9.80;99.90
11538;DHT22;50159;49.426;11.182;2023-04-24T02:48:06;9.80;99.90
11538;DHT22;50159;49.426;11.182;2023-04-24T02:50:33;9.80;99.90
11538;DHT22;50159;49.426;11.182;2023-04-24T02:53:00;9.80;99.90
11538;DHT22;50159;49.426;11.182;2023-04-24T02:55:26;9.80;99.90
11538;DHT22;50159;49.426;11.182;2023-04-24T02:57:53;9.80;99.90
11538;DHT22;50159;49.426;11.182;2023-04-24T03:00:20;9.70;99.90
11538;DHT22;50159;49.426;11.182;2023-04-24T03:02:47;9.70;99.90
11538;DHT22;50159;49.426;11.182;2023-04-24T03:05:14;9.70;99.90
11538;DHT22;50159;49.426;11.182;2023-04-24T03:07:41;9.70;99.90
11538;DHT22;50159;49.426;11.182;2023-04-24T03:10:08;9.70;99.90
11538;DHT22;50159;49.426;11.182;2023-04-24T03:12:34;9.60;99.90
11538;DHT22;50159;49.426;11.182;2023-04-24T03:15:01;9.60;99.90
11538;DHT22;50159;49.426;11.182;2023-04-24T03:17:28;9.70;99.90
11538;DHT22;50159;49.426;11.182;2023-04-24T03:19:55;9.70;99.90
11538;DHT22;50159;49.426;11.182;2023-04-24T03:22:22;9.70;99.90
11538;DHT22;50159;49.426;11.182;2023-04-24T03:24:48;9.70;99.90
11538;DHT22;50159;49.426;11.182;2023-04-24T03:27:15;9.70;99.90
11538;DHT22;50159;49.426;11.182;2023-04-24T03:29:41;9.70;99.90
11538;DHT22;50159;49.426;11.182;2023-04-24T03:32:08;9.70;99.90
11538;DHT22;50159;49.426;11.182;2023-04-24T03:34:35;9.70;99.90
11538;DHT22;50159;49.426;11.182;2023-04-24T03:37:02;9.70;99.90
11538;DHT22;50159;49.426;11.182;2023-04-24T03:39:29;9.70;99.90
11538;DHT22;50159;49.426;11.182;2023-04-24T03:41:55;9.60;99.90
11538;DHT22;50159;49.426;11.182;2023-04-24T03:44:22;9.60;99.90
11538;DHT22;50159;49.426;11.182;2023-04-24T03:46:49;9.50;99.90
11538;DHT22;50159;49.426;11.182;2023-04-24T03:49:15;9.50;99.90
11538;DHT22;50159;49.426;11.182;2023-04-24T03:51:42;9.50;99.90
11538;DHT22;50159;49.426;11.182;2023-04-24T03:54:09;9.50;99.90
11538;DHT22;50159;49.426;11.182;2023-04-24T03:56:35;9.50;99.90
11538;DHT22;50159;49.426;11.182;2023-04-24T03:59:02;9.50;99.90
11538;DHT22;50159;49.426;11.182;2023-04-24T04:01:28;9.50;99.90
11538;DHT22;50159;49.426;11.182;2023-04-24T04:03:55;9.50;99.90
11538;DHT22;50159;49.426;11.182;2023-04-24T04:06:22;9.50;99.90
11538;DHT22;50159;49.426;11.182;2023-04-24T04:08:49;9.50;99.90
11538;DHT22;50159;49.426;11.182;2023-04-24T04:11:16;9.50;99.90
11538;DHT22;50159;49.426;11.182;2023-04-24T04:13:42;9.50;99.90
11538;DHT22;50159;49.426;11.182;2023-04-24T04:16:09;9.50;99.90
11538;DHT22;50159;49.426;11.182;2023-04-24T04:18:36;9.50;99.90
11538;DHT22;50159;49.426;11.182;2023-04-24T04:21:02;9.50;99.90
11538;DHT22;50159;49.426;11.182;2023-04-24T04:23:29;9.50;99.90
11538;DHT22;50159;49.426;11.182;2023-04-24T04:25:56;9.50;99.90
11538;DHT22;50159;49.426;11.182;2023-04-24T04:28:23;9.50;99.90
11538;DHT22;50159;49.426;11.182;2023-04-24T04:30:51;9.50;99.90
11538;DHT22;50159;49.426;11.182;2023-04-24T04:33:21;9.50;99.90
11538;DHT22;50159;49.426;11.182;2023-04-24T04:35:48;9.50;99.90
11538;DHT22;50159;49.426;11.182;2023-04-24T04:38:16;9.50;99.90
11538;DHT22;50159;49.426;11.182;2023-04-24T04:40:43;9.50;99.90
11538;DHT22;50159;49.426;11.182;2023-04-24T04:43:10;9.50;99.90
11538;DHT22;50159;49.426;11.182;2023-04-24T04:45:37;9.40;99.90
11538;DHT22;50159;49.426;11.182;2023-04-24T04:48:06;9.50;99.90
11538;DHT22;50159;49.426;11.182;2023-04-24T04:50:36;9.50;99.90
11538;DHT22;50159;49.426;11.182;2023-04-24T04:53:02;9.50;99.90
11538;DHT22;50159;49.426;11.182;2023-04-24T04:55:29;9.60;99.90
11538;DHT22;50159;49.426;11.182;2023-04-24T04:57:56;9.60;99.90
11538;DHT22;50159;49.426;11.182;2023-04-24T05:00:23;9.70;99.90
11538;DHT22;50159;49.426;11.182;2023-04-24T05:02:51;9.70;99.90
11538;DHT22;50159;49.426;11.182;2023-04-24T05:05:18;9.70;99.90
11538;DHT22;50159;49.426;11.182;2023-04-24T05:07:45;9.70;99.90
11538;DHT22;50159;49.426;11.182;2023-04-24T05:10:12;9.80;99.90
11538;DHT22;50159;49.426;11.182;2023-04-24T05:12:38;9.80;99.90
11538;DHT22;50159;49.426;11.182;2023-04-24T05:15:06;9.80;99.90
11538;DHT22;50159;49.426;11.182;2023-04-24T05:17:32;9.80;99.90
11538;DHT22;50159;49.426;11.182;2023-04-24T05:19:59;9.90;99.90
11538;DHT22;50159;49.426;11.182;2023-04-24T05:22:27;9.90;99.90
11538;DHT22;50159;49.426;11.182;2023-04-24T05:24:53;9.90;99.90
11538;DHT22;50159;49.426;11.182;2023-04-24T05:27:20;9.90;99.90
11538;DHT22;50159;49.426;11.182;2023-04-24T05:29:47;10.00;99.90
11538;DHT22;50159;49.426;11.182;2023-04-24T05:32:13;10.10;99.90
11538;DHT22;50159;49.426;11.182;2023-04-24T05:34:40;10.10;99.90
11538;DHT22;50159;49.426;11.182;2023-04-24T05:37:06;10.10;99.90
11538;DHT22;50159;49.426;11.182;2023-04-24T05:39:36;10.20;99.90
11538;DHT22;50159;49.426;11.182;2023-04-24T05:42:03;10.20;99.90
11538;DHT22;50159;49.426;11.182;2023-04-24T05:44:30;10.30;99.90
11538;DHT22;50159;49.426;11.182;2023-04-24T05:46:57;10.30;99.90
11538;DHT22;50159;49.426;11.182;2023-04-24T05:49:24;10.40;99.90
11538;DHT22;50159;49.426;11.182;2023-04-24T05:51:51;10.40;99.90
11538;DHT22;50159;49.426;11.182;2023-04-24T05:54:17;10.30;99.90
11538;DHT22;50159;49.426;11.182;2023-04-24T05:56:44;10.40;99.90
11538;DHT22;50159;49.426;11.182;2023-04-24T05:59:11;10.40;99.90
11538;DHT22;50159;49.426;11.182;2023-04-24T06:01:37;10.50;99.90
11538;DHT22;50159;49.426;11.182;2023-04-24T06:04:04;10.50;99.90
11538;DHT22;50159;49.426;11.182;2023-04-24T06:06:32;10.50;99.90
11538;DHT22;50159;49.426;11.182;2023-04-24T06:08:59;10.60;99.90
11538;DHT22;50159;49.426;11.182;2023-04-24T06:11:25;10.60;99.90
11538;DHT22;50159;49.426;11.182;2023-04-24T06:13:52;10.60;99.90
11538;DHT22;50159;49.426;11.182;2023-04-24T06:16:19;10.90;99.90
11538;DHT22;50159;49.426;11.182;2023-04-24T06:18:45;10.70;99.90
11538;DHT22;50159;49.426;11.182;2023-04-24T06:21:17;10.70;99.90
11538;DHT22;50159;49.426;11.182;2023-04-24T06:23:44;10.70;99.90
11538;DHT22;50159;49.426;11.182;2023-04-24T06:26:12;10.80;99.90
11538;DHT22;50159;49.426;11.182;2023-04-24T06:28:39;10.80;99.90
11538;DHT22;50159;49.426;11.182;2023-04-24T06:31:06;10.90;99.90
11538;DHT22;50159;49.426;11.182;2023-04-24T06:33:32;10.90;99.90
11538;DHT22;50159;49.426;11.182;2023-04-24T06:35:59;10.90;99.90
11538;DHT22;50159;49.426;11.182;2023-04-24T06:38:26;10.90;99.90
11538;DHT22;50159;49.426;11.182;2023-04-24T06:40:52;11.00;99.90
11538;DHT22;50159;49.426;11.182;2023-04-24T06:43:19;11.00;99.90
11538;DHT22;50159;49.426;11.182;2023-04-24T06:45:46;10.90;99.90
11538;DHT22;50159;49.426;11.182;2023-04-24T06:48:13;10.90;99.90
11538;DHT22;50159;49.426;11.182;2023-04-24T06:50:40;10.90;99.90
11538;DHT22;50159;49.426;11.182;2023-04-24T06:53:06;10.90;99.90
11538;DHT22;50159;49.426;11.182;2023-04-24T06:55:33;10.90;99.90
11538;DHT22;50159;49.426;11.182;2023-04-24T06:58:01;10.90;99.90
11538;DHT22;50159;49.426;11.182;2023-04-24T07:00:28;10.90;99.90
11538;DHT22;50159;49.426;11.182;2023-04-24T07:02:56;10.90;99.90
11538;DHT22;50159;49.426;11.182;2023-04-24T07:05:24;10.90;99.90
11538;DHT22;50159;49.426;11.182;2023-04-24T07:07:51;10.90;99.90
11538;DHT22;50159;49.426;11.182;2023-04-24T07:10:17;11.00;99.90
11538;DHT22;50159;49.426;11.182;2023-04-24T07:12:44;11.10;99.90
11538;DHT22;50159;49.426;11.182;2023-04-24T07:15:11;11.20;99.90
11538;DHT22;50159;49.426;11.182;2023-04-24T07:17:38;11.30;99.90
11538;DHT22;50159;49.426;11.182;2023-04-24T07:20:10;11.20;99.90
11538;DHT22;50159;49.426;11.182;2023-04-24T07:22:38;11.30;99.90
11538;DHT22;50159;49.426;11.182;2023-04-24T07:25:05;11.40;99.90
11538;DHT22;50159;49.426;11.182;2023-04-24T07:27:33;11.50;99.90
11538;DHT22;50159;49.426;11.182;2023-04-24T07:30:00;11.60;99.90
11538;DHT22;50159;49.426;11.182;2023-04-24T07:32:27;11.50;99.90
11538;DHT22;50159;49.426;11.182;2023-04-24T07:34:53;11.40;99.90
11538;DHT22;50159;49.426;11.182;2023-04-24T07:37:20;11.20;99.90
11538;DHT22;50159;49.426;11.182;2023-04-24T07:39:47;11.40;99.90
11538;DHT22;50159;49.426;11.182;2023-04-24T07:42:14;11.30;99.90
11538;DHT22;50159;49.426;11.182;2023-04-24T07:44:41;11.30;99.90
11538;DHT22;50159;49.426;11.182;2023-04-24T07:47:08;11.30;99.90
11538;DHT22;50159;49.426;11.182;2023-04-24T07:49:35;11.20;99.90
11538;DHT22;50159;49.426;11.182;2023-04-24T07:52:01;11.10;99.90
11538;DHT22;50159;49.426;11.182;2023-04-24T07:54:29;11.10;99.90
11538;DHT22;50159;49.426;11.182;2023-04-24T07:56:56;11.20;99.90
11538;DHT22;50159;49.426;11.182;2023-04-24T07:59:22;11.20;99.90
11538;DHT22;50159;49.426;11.182;2023-04-24T08:01:49;11.20;99.90
11538;DHT22;50159;49.426;11.182;2023-04-24T08:04:16;11.30;99.90
11538;DHT22;50159;49.426;11.182;2023-04-24T08:06:44;11.30;99.90
11538;DHT22;50159;49.426;11.182;2023-04-24T08:09:11;11.40;99.90
11538;DHT22;50159;49.426;11.182;2023-04-24T08:11:38;11.50;99.90
11538;DHT22;50159;49.426;11.182;2023-04-24T08:14:04;11.60;99.90
11538;DHT22;50159;49.426;11.182;2023-04-24T08:16:32;11.60;99.90
11538;DHT22;50159;49.426;11.182;2023-04-24T08:18:59;11.60;99.90
11538;DHT22;50159;49.426;11.182;2023-04-24T08:21:26;11.70;99.90
11538;DHT22;50159;49.426;11.182;2023-04-24T08:23:53;11.80;99.90
11538;DHT22;50159;49.426;11.182;2023-04-24T08:26:20;11.90;99.90
11538;DHT22;50159;49.426;11.182;2023-04-24T08:28:47;12.10;99.90
11538;DHT22;50159;49.426;11.182;2023-04-24T08:31:16;12.10;99.90
11538;DHT22;50159;49.426;11.182;2023-04-24T08:33:42;12.20;99.90
11538;DHT22;50159;49.426;11.182;2023-04-24T08:36:11;12.30;98.70
11538;DHT22;50159;49.426;11.182;2023-04-24T08:38:38;12.30;97.90
11538;DHT22;50159;49.426;11.182;2023-04-24T08:41:07;12.30;98.20
11538;DHT22;50159;49.426;11.182;2023-04-24T08:43:34;12.30;97.80
11538;DHT22;50159;49.426;11.182;2023-04-24T08:46:04;12.30;96.60
11538;DHT22;50159;49.426;11.182;2023-04-24T08:48:38;12.30;96.50
11538;DHT22;50159;49.426;11.182;2023-04-24T08:51:07;12.30;96.50
11538;DHT22;50159;49.426;11.182;2023-04-24T08:53:35;12.50;95.80
11538;DHT22;50159;49.426;11.182;2023-04-24T08:56:02;12.90;94.90
11538;DHT22;50159;49.426;11.182;2023-04-24T08:58:31;13.20;92.20
11538;DHT22;50159;49.426;11.182;2023-04-24T09:00:58;13.20;90.60
11538;DHT22;50159;49.426;11.182;2023-04-24T09:03:27;13.10;90.90
11538;DHT22;50159;49.426;11.182;2023-04-24T09:05:55;13.00;90.70
11538;DHT22;50159;49.426;11.182;2023-04-24T09:08:25;13.10;91.20
11538;DHT22;50159;49.426;11.182;2023-04-24T09:10:52;13.20;90.00
11538;DHT22;50159;49.426;11.182;2023-04-24T09:13:20;13.20;89.60
11538;DHT22;50159;49.426;11.182;2023-04-24T09:15:47;13.10;89.50
11538;DHT22;50159;49.426;11.182;2023-04-24T09:18:14;13.10;91.20
11538;DHT22;50159;49.426;11.182;2023-04-24T09:21:08;13.20;91.30
11538;DHT22;50159;49.426;11.182;2023-04-24T09:23:35;13.20;91.20
11538;DHT22;50159;49.426;11.182;2023-04-24T09:26:03;13.30;90.80
11538;DHT22;50159;49.426;11.182;2023-04-24T09:28:36;13.40;88.00
11538;DHT22;50159;49.426;11.182;2023-04-24T09:31:13;13.20;86.40
11538;DHT22;50159;49.426;11.182;2023-04-24T09:36:37;13.20;88.70
11538;DHT22;50159;49.426;11.182;2023-04-24T09:39:06;13.10;87.40
11538;DHT22;50159;49.426;11.182;2023-04-24T09:41:35;12.80;85.90
11538;DHT22;50159;49.426;11.182;2023-04-24T09:44:18;12.50;86.40
11538;DHT22;50159;49.426;11.182;2023-04-24T09:46:52;12.30;89.70
11538;DHT22;50159;49.426;11.182;2023-04-24T09:49:24;12.20;90.70
11538;DHT22;50159;49.426;11.182;2023-04-24T09:51:51;12.10;91.20
11538;DHT22;50159;49.426;11.182;2023-04-24T09:54:20;12.00;91.40
11538;DHT22;50159;49.426;11.182;2023-04-24T09:56:50;12.20;92.00
11538;DHT22;50159;49.426;11.182;2023-04-24T09:59:18;12.50;91.80
11538;DHT22;50159;49.426;11.182;2023-04-24T10:01:46;12.90;91.20
11538;DHT22;50159;49.426;11.182;2023-04-24T10:04:19;13.00;89.00
11538;DHT22;50159;49.426;11.182;2023-04-24T10:06:48;13.00;88.00
11538;DHT22;50159;49.426;11.182;2023-04-24T10:09:17;13.00;89.30
11538;DHT22;50159;49.426;11.182;2023-04-24T10:11:46;13.00;88.50
11538;DHT22;50159;49.426;11.182;2023-04-24T10:14:18;12.90;86.50
11538;DHT22;50159;49.426;11.182;2023-04-24T10:16:45;12.80;83.10
11538;DHT22;50159;49.426;11.182;2023-04-24T10:19:14;12.90;81.70
11538;DHT22;50159;49.426;11.182;2023-04-24T10:21:43;13.00;80.00
11538;DHT22;50159;49.426;11.182;2023-04-24T10:24:17;13.10;79.00
11538;DHT22;50159;49.426;11.182;2023-04-24T10:26:45;13.20;78.50
11538;DHT22;50159;49.426;11.182;2023-04-24T10:29:14;13.20;75.10
11538;DHT22;50159;49.426;11.182;2023-04-24T10:31:42;13.10;75.60
11538;DHT22;50159;49.426;11.182;2023-04-24T10:34:12;13.00;73.00
11538;DHT22;50159;49.426;11.182;2023-04-24T10:36:42;13.10;73.20
11538;DHT22;50159;49.426;11.182;2023-04-24T10:39:13;13.20;73.20
11538;DHT22;50159;49.426;11.182;2023-04-24T10:41:41;13.40;72.00
11538;DHT22;50159;49.426;11.182;2023-04-24T10:44:13;13.50;68.20
11538;DHT22;50159;49.426;11.182;2023-04-24T10:46:44;14.00;69.70
11538;DHT22;50159;49.426;11.182;2023-04-24T10:49:11;14.40;66.30
11538;DHT22;50159;49.426;11.182;2023-04-24T10:51:49;14.70;61.20
11538;DHT22;50159;49.426;11.182;2023-04-24T10:54:29;15.00;59.10
11538;DHT22;50159;49.426;11.182;2023-04-24T10:59:51;15.40;56.30
11538;DHT22;50159;49.426;11.182;2023-04-24T11:02:18;15.20;54.50
11538;DHT22;50159;49.426;11.182;2023-04-24T11:05:05;14.90;57.50
11538;DHT22;50159;49.426;11.182;2023-04-24T11:10:47;14.10;66.30
11538;DHT22;50159;49.426;11.182;2023-04-24T11:13:17;13.60;68.10
11538;DHT22;50159;49.426;11.182;2023-04-24T11:18:42;12.90;69.80
11538;DHT22;50159;49.426;11.182;2023-04-24T11:21:13;12.70;70.70
11538;DHT22;50159;49.426;11.182;2023-04-24T11:23:39;12.70;71.40
11538;DHT22;50159;49.426;11.182;2023-04-24T11:26:32;12.70;70.30
11538;DHT22;50159;49.426;11.182;2023-04-24T11:29:19;12.80;70.00
11538;DHT22;50159;49.426;11.182;2023-04-24T11:31:48;12.80;71.10
11538;DHT22;50159;49.426;11.182;2023-04-24T11:34:18;12.80;68.50
11538;DHT22;50159;49.426;11.182;2023-04-24T11:36:47;12.70;68.10
11538;DHT22;50159;49.426;11.182;2023-04-24T11:39:14;12.70;66.60
11538;DHT22;50159;49.426;11.182;2023-04-24T11:41:41;12.80;67.40
11538;DHT22;50159;49.426;11.182;2023-04-24T11:44:09;13.00;64.90
11538;DHT22;50159;49.426;11.182;2023-04-24T11:46:37;13.20;63.70
11538;DHT22;50159;49.426;11.182;2023-04-24T11:49:07;13.60;63.90
11538;DHT22;50159;49.426;11.182;2023-04-24T11:51:34;13.90;60.30
11538;DHT22;50159;49.426;11.182;2023-04-24T11:54:18;14.20;59.40
11538;DHT22;50159;49.426;11.182;2023-04-24T11:56:46;14.40;59.40
11538;DHT22;50159;49.426;11.182;2023-04-24T11:59:13;14.60;59.00
11538;DHT22;50159;49.426;11.182;2023-04-24T12:01:47;14.50;58.20
11538;DHT22;50159;49.426;11.182;2023-04-24T12:04:15;14.10;58.80
11538;DHT22;50159;49.426;11.182;2023-04-24T12:07:04;13.70;60.00
11538;DHT22;50159;49.426;11.182;2023-04-24T12:09:44;13.40;62.90
11538;DHT22;50159;49.426;11.182;2023-04-24T12:12:25;13.20;63.10
11538;DHT22;50159;49.426;11.182;2023-04-24T12:14:56;13.10;61.40
11538;DHT22;50159;49.426;11.182;2023-04-24T12:17:31;12.90;61.20
11538;DHT22;50159;49.426;11.182;2023-04-24T12:20:06;12.90;62.30
11538;DHT22;50159;49.426;11.182;2023-04-24T12:22:51;13.00;63.40
11538;DHT22;50159;49.426;11.182;2023-04-24T12:25:21;13.10;59.70
11538;DHT22;50159;49.426;11.182;2023-04-24T12:30:35;13.20;59.60
11538;DHT22;50159;49.426;11.182;2023-04-24T12:33:02;13.40;61.00
11538;DHT22;50159;49.426;11.182;2023-04-24T12:35:32;13.50;61.20
11538;DHT22;50159;49.426;11.182;2023-04-24T12:38:11;13.60;62.00
11538;DHT22;50159;49.426;11.182;2023-04-24T12:40:42;13.80;62.50
11538;DHT22;50159;49.426;11.182;2023-04-24T12:43:19;13.80;63.40
11538;DHT22;50159;49.426;11.182;2023-04-24T12:45:47;13.80;61.60
11538;DHT22;50159;49.426;11.182;2023-04-24T12:48:14;13.70;62.10
11538;DHT22;50159;49.426;11.182;2023-04-24T12:50:41;13.60;59.00
11538;DHT22;50159;49.426;11.182;2023-04-24T12:53:11;13.50;58.90
11538;DHT22;50159;49.426;11.182;2023-04-24T12:55:38;13.40;59.10
11538;DHT22;50159;49.426;11.182;2023-04-24T12:58:04;13.40;60.30
11538;DHT22;50159;49.426;11.182;2023-04-24T13:00:32;13.40;59.70
11538;DHT22;50159;49.426;11.182;2023-04-24T13:02:59;13.30;60.00
11538;DHT22;50159;49.426;11.182;2023-04-24T13:05:26;13.40;61.10
11538;DHT22;50159;49.426;11.182;2023-04-24T13:07:53;13.40;60.10
11538;DHT22;50159;49.426;11.182;2023-04-24T13:10:19;13.50;60.20
11538;DHT22;50159;49.426;11.182;2023-04-24T13:12:46;13.40;59.70
11538;DHT22;50159;49.426;11.182;2023-04-24T13:15:13;13.40;60.30
11538;DHT22;50159;49.426;11.182;2023-04-24T13:17:40;13.50;59.80
11538;DHT22;50159;49.426;11.182;2023-04-24T13:20:07;13.60;60.40
11538;DHT22;50159;49.426;11.182;2023-04-24T13:22:33;13.70;59.90
11538;DHT22;50159;49.426;11.182;2023-04-24T13:25:00;13.90;59.60
11538;DHT22;50159;49.426;11.182;2023-04-24T13:27:27;14.20;60.10
11538;DHT22;50159;49.426;11.182;2023-04-24T13:29:54;14.20;59.90
11538;DHT22;50159;49.426;11.182;2023-04-24T13:32:20;14.00;59.50
11538;DHT22;50159;49.426;11.182;2023-04-24T13:34:47;13.80;59.60
11538;DHT22;50159;49.426;11.182;2023-04-24T13:37:14;13.50;58.80
11538;DHT22;50159;49.426;11.182;2023-04-24T13:39:41;13.30;61.90
11538;DHT22;50159;49.426;11.182;2023-04-24T13:42:10;13.00;63.50
11538;DHT22;50159;49.426;11.182;2023-04-24T13:44:37;12.80;64.10
11538;DHT22;50159;49.426;11.182;2023-04-24T13:47:04;12.70;64.90
11538;DHT22;50159;49.426;11.182;2023-04-24T13:49:31;12.70;65.40
11538;DHT22;50159;49.426;11.182;2023-04-24T13:51:57;12.60;63.70
11538;DHT22;50159;49.426;11.182;2023-04-24T13:54:24;12.70;63.80
11538;DHT22;50159;49.426;11.182;2023-04-24T13:56:52;12.70;64.70
11538;DHT22;50159;49.426;11.182;2023-04-24T13:59:20;12.60;65.00
11538;DHT22;50159;49.426;11.182;2023-04-24T14:01:48;12.50;65.50
11538;DHT22;50159;49.426;11.182;2023-04-24T14:04:15;12.30;65.90
11538;DHT22;50159;49.426;11.182;2023-04-24T14:06:43;12.20;67.20
11538;DHT22;50159;49.426;11.182;2023-04-24T14:09:10;12.10;67.40
11538;DHT22;50159;49.426;11.182;2023-04-24T14:11:36;12.00;67.50
11538;DHT22;50159;49.426;11.182;2023-04-24T14:14:03;12.00;68.00
11538;DHT22;50159;49.426;11.182;2023-04-24T14:16:30;12.10;67.40
11538;DHT22;50159;49.426;11.182;2023-04-24T14:18:58;12.30;67.50
11538;DHT22;50159;49.426;11.182;2023-04-24T14:21:24;12.60;66.40
11538;DHT22;50159;49.426;11.182;2023-04-24T14:23:52;13.20;65.80
11538;DHT22;50159;49.426;11.182;2023-04-24T14:26:19;14.80;63.60
11538;DHT22;50159;49.426;11.182;2023-04-24T14:28:46;17.10;57.60
11538;DHT22;50159;49.426;11.182;2023-04-24T14:31:13;18.60;50.90
11538;DHT22;50159;49.426;11.182;2023-04-24T14:33:40;18.60;49.40
11538;DHT22;50159;49.426;11.182;2023-04-24T14:36:06;18.20;48.40
11538;DHT22;50159;49.426;11.182;2023-04-24T14:38:34;17.40;51.20
11538;DHT22;50159;49.426;11.182;2023-04-24T14:41:01;17.40;51.00
11538;DHT22;50159;49.426;11.182;2023-04-24T14:43:38;17.00;50.20
11538;DHT22;50159;49.426;11.182;2023-04-24T14:46:05;17.00;52.00
11538;DHT22;50159;49.426;11.182;2023-04-24T14:48:31;17.50;50.30
11538;DHT22;50159;49.426;11.182;2023-04-24T14:50:58;17.00;50.20
11538;DHT22;50159;49.426;11.182;2023-04-24T14:53:25;16.10;52.90
11538;DHT22;50159;49.426;11.182;2023-04-24T14:55:52;15.30;54.50
11538;DHT22;50159;49.426;11.182;2023-04-24T14:58:18;15.20;56.10
11538;DHT22;50159;49.426;11.182;2023-04-24T15:00:45;15.00;56.00
11538;DHT22;50159;49.426;11.182;2023-04-24T15:03:12;14.80;57.50
11538;DHT22;50159;49.426;11.182;2023-04-24T15:05:39;15.10;57.00
11538;DHT22;50159;49.426;11.182;2023-04-24T15:08:06;15.30;54.80
11538;DHT22;50159;49.426;11.182;2023-04-24T15:10:35;14.90;55.50
11538;DHT22;50159;49.426;11.182;2023-04-24T15:13:01;14.50;54.30
11538;DHT22;50159;49.426;11.182;2023-04-24T15:15:28;14.40;55.20
11538;DHT22;50159;49.426;11.182;2023-04-24T15:17:55;14.60;56.30
11538;DHT22;50159;49.426;11.182;2023-04-24T15:20:22;14.90;55.80
11538;DHT22;50159;49.426;11.182;2023-04-24T15:22:48;15.60;56.70
11538;DHT22;50159;49.426;11.182;2023-04-24T15:25:15;16.40;54.60
11538;DHT22;50159;49.426;11.182;2023-04-24T15:27:43;16.80;52.60
11538;DHT22;50159;49.426;11.182;2023-04-24T15:30:11;17.10;51.60
11538;DHT22;50159;49.426;11.182;2023-04-24T15:32:38;17.40;51.30
11538;DHT22;50159;49.426;11.182;2023-04-24T15:35:06;17.60;50.70
11538;DHT22;50159;49.426;11.182;2023-04-24T15:37:36;17.80;51.20
11538;DHT22;50159;49.426;11.182;2023-04-24T15:40:03;17.80;49.60